sensor_id;sensor_type;location;lat;lon;timestamp;temperature;humidity
23715;DHT22;12036;50.858;4.472;2023-09-07T00:01:19;17.90;99.90
23715;DHT22;12036;50.858;4.472;2023-09-07T00:03:45;17.90;99.90
23715;DHT22;12036;50.858;4.472;2023-09-07T00:06:11;17.90;99.90
23715;DHT22;12036;50.858;4.472;2023-09-07T00:08:36;17.80;99.90
23715;DHT22;12036;50.858;4.472;2023-09-07T00:11:03;17.80;99.90
23715;DHT22;12036;50.858;4.472;2023-09-07T00:13:29;17.80;99.90
23715;DHT22;12036;50.858;4.472;2023-09-07T00:15:59;17.80;99.90
23715;DHT22;12036;50.858;4.472;2023-09-07T00:18:25;17.80;99.90
23715;DHT22;12036;50.858;4.472;2023-09-07T00:20:51;17.70;99.90
23715;DHT22;12036;50.858;4.472;2023-09-07T00:23:16;17.70;99.90
23715;DHT22;12036;50.858;4.472;2023-09-07T00:25:42;17.70;99.90
23715;DHT22;12036;50.858;4.472;2023-09-07T00:28:08;17.70;99.90
23715;DHT22;12036;50.858;4.472;2023-09-07T00:30:33;17.60;99.90
23715;DHT22;12036;50.858;4.472;2023-09-07T00:32:59;17.60;99.90
23715;DHT22;12036;50.858;4.472;2023-09-07T00:35:24;17.70;99.90
23715;DHT22;12036;50.858;4.472;2023-09-07T00:37:50;17.70;99.90
23715;DHT22;12036;50.858;4.472;2023-09-07T00:40:16;17.70;99.90
23715;DHT22;12036;50.858;4.472;2023-09-07T00:42:41;17.80;99.90
23715;DHT22;12036;50.858;4.472;2023-09-07T00:45:07;17.90;99.90
23715;DHT22;12036;50.858;4.472;2023-09-07T00:47:34;17.90;99.90
23715;DHT22;12036;50.858;4.472;2023-09-07T00:50:02;18.00;99.90
23715;DHT22;12036;50.858;4.472;2023-09-07T00:52:28;18.00;99.90
23715;DHT22;12036;50.858;4.472;2023-09-07T00:54:54;18.00;99.90
23715;DHT22;12036;50.858;4.472;2023-09-07T00:57:20;18.00;99.90
23715;DHT22;12036;50.858;4.472;2023-09-07T00:59:46;17.90;99.90
23715;DHT22;12036;50.858;4.472;2023-09-07T01:02:11;17.90;99.90
23715;DHT22;12036;50.858;4.472;2023-09-07T01:04:37;17.90;99.90
23715;DHT22;12036;50.858;4.472;2023-09-07T01:07:09;17.90;99.90
23715;DHT22;12036;50.858;4.472;2023-09-07T01:09:37;17.80;99.90
23715;DHT22;12036;50.858;4.472;2023-09-07T01:12:05;17.80;99.90
23715;DHT22;12036;50.858;4.472;2023-09-07T01:14:33;17.80;99.90
23715;DHT22;12036;50.858;4.472;2023-09-07T01:16:59;17.80;99.90
23715;DHT22;12036;50.858;4.472;2023-09-07T01:19:24;17.80;99.90
23715;DHT22;12036;50.858;4.472;2023-09-07T01:21:50;17.80;99.90
23715;DHT22;12036;50.858;4.472;2023-09-07T01:24:16;17.80;99.90
23715;DHT22;12036;50.858;4.472;2023-09-07T01:26:42;17.80;99.90
23715;DHT22;12036;50.858;4.472;2023-09-07T01:29:09;17.80;99.90
23715;DHT22;12036;50.858;4.472;2023-09-07T01:31:35;17.70;99.90
23715;DHT22;12036;50.858;4.472;2023-09-07T01:34:02;17.70;99.90
23715;DHT22;12036;50.858;4.472;2023-09-07T01:36:27;17.70;99.90
23715;DHT22;12036;50.858;4.472;2023-09-07T01:38:53;17.60;99.90
23715;DHT22;12036;50.858;4.472;2023-09-07T01:41:18;17.60;99.90
23715;DHT22;12036;50.858;4.472;2023-09-07T01:43:44;17.60;99.90
23715;DHT22;12036;50.858;4.472;2023-09-07T01:46:10;17.50;99.90
23715;DHT22;12036;50.858;4.472;2023-09-07T01:48:35;17.50;99.90
23715;DHT22;12036;50.858;4.472;2023-09-07T01:51:01;17.40;99.90
23715;DHT22;12036;50.858;4.472;2023-09-07T01:53:27;17.40;99.90
23715;DHT22;12036;50.858;4.472;2023-09-07T01:55:56;17.40;99.90
23715;DHT22;12036;50.858;4.472;2023-09-07T01:58:22;17.30;99.90
23715;DHT22;12036;50.858;4.472;2023-09-07T02:00:49;17.30;99.90
23715;DHT22;12036;50.858;4.472;2023-09-07T02:03:15;17.30;99.90
23715;DHT22;12036;50.858;4.472;2023-09-07T02:05:41;17.20;99.90
23715;DHT22;12036;50.858;4.472;2023-09-07T02:08:06;17.20;99.90
23715;DHT22;12036;50.858;4.472;2023-09-07T02:10:33;17.10;99.90
23715;DHT22;12036;50.858;4.472;2023-09-07T02:12:59;17.10;99.90
23715;DHT22;12036;50.858;4.472;2023-09-07T02:15:24;17.10;99.90
23715;DHT22;12036;50.858;4.472;2023-09-07T02:17:50;17.00;99.90
23715;DHT22;12036;50.858;4.472;2023-09-07T02:20:16;17.00;99.90
23715;DHT22;12036;50.858;4.472;2023-09-07T02:22:42;17.00;99.90
23715;DHT22;12036;50.858;4.472;2023-09-07T02:25:08;17.00;99.90
23715;DHT22;12036;50.858;4.472;2023-09-07T02:27:33;16.90;99.90
23715;DHT22;12036;50.858;4.472;2023-09-07T02:29:59;16.90;99.90
23715;DHT22;12036;50.858;4.472;2023-09-07T02:32:25;16.90;99.90
23715;DHT22;12036;50.858;4.472;2023-09-07T02:34:50;16.90;99.90
23715;DHT22;12036;50.858;4.472;2023-09-07T02:37:16;16.80;99.90
23715;DHT22;12036;50.858;4.472;2023-09-07T02:39:42;16.80;99.90
23715;DHT22;12036;50.858;4.472;2023-09-07T02:42:08;16.80;99.90
23715;DHT22;12036;50.858;4.472;2023-09-07T02:44:34;16.80;99.90
23715;DHT22;12036;50.858;4.472;2023-09-07T02:47:01;16.80;99.90
23715;DHT22;12036;50.858;4.472;2023-09-07T02:49:26;16.70;99.90
23715;DHT22;12036;50.858;4.472;2023-09-07T02:51:52;16.70;99.90
23715;DHT22;12036;50.858;4.472;2023-09-07T02:54:18;16.70;99.90
23715;DHT22;12036;50.858;4.472;2023-09-07T02:56:44;16.60;99.90
23715;DHT22;12036;50.858;4.472;2023-09-07T02:59:09;16.60;99.90
23715;DHT22;12036;50.858;4.472;2023-09-07T03:01:35;16.60;99.90
23715;DHT22;12036;50.858;4.472;2023-09-07T03:04:00;16.50;99.90
23715;DHT22;12036;50.858;4.472;2023-09-07T03:06:26;16.50;99.90
23715;DHT22;12036;50.858;4.472;2023-09-07T03:08:52;16.50;99.90
23715;DHT22;12036;50.858;4.472;2023-09-07T03:11:18;16.50;99.90
23715;DHT22;12036;50.858;4.472;2023-09-07T03:13:43;16.50;99.90
23715;DHT22;12036;50.858;4.472;2023-09-07T03:16:10;16.50;99.90
23715;DHT22;12036;50.858;4.472;2023-09-07T03:18:35;16.40;99.90
23715;DHT22;12036;50.858;4.472;2023-09-07T03:21:02;16.40;99.90
23715;DHT22;12036;50.858;4.472;2023-09-07T03:23:32;16.30;99.90
23715;DHT22;12036;50.858;4.472;2023-09-07T03:25:58;16.30;99.90
23715;DHT22;12036;50.858;4.472;2023-09-07T03:28:25;16.30;99.90
23715;DHT22;12036;50.858;4.472;2023-09-07T03:30:51;16.30;99.90
23715;DHT22;12036;50.858;4.472;2023-09-07T03:33:17;16.30;99.90
23715;DHT22;12036;50.858;4.472;2023-09-07T03:35:43;16.20;99.90
23715;DHT22;12036;50.858;4.472;2023-09-07T03:38:08;16.20;99.90
23715;DHT22;12036;50.858;4.472;2023-09-07T03:40:34;16.20;99.90
23715;DHT22;12036;50.858;4.472;2023-09-07T03:43:00;16.20;99.90
23715;DHT22;12036;50.858;4.472;2023-09-07T03:45:25;16.10;99.90
23715;DHT22;12036;50.858;4.472;2023-09-07T03:47:51;16.10;99.90
23715;DHT22;12036;50.858;4.472;2023-09-07T03:50:16;16.10;99.90
23715;DHT22;12036;50.858;4.472;2023-09-07T03:52:42;16.10;99.90
23715;DHT22;12036;50.858;4.472;2023-09-07T03:55:08;16.10;99.90
23715;DHT22;12036;50.858;4.472;2023-09-07T03:57:34;16.10;99.90
23715;DHT22;12036;50.858;4.472;2023-09-07T04:00:00;16.00;99.90
23715;DHT22;12036;50.858;4.472;2023-09-07T04:02:26;16.00;99.90
23715;DHT22;12036;50.858;4.472;2023-09-07T04:04:53;16.00;99.90
23715;DHT22;12036;50.858;4.472;2023-09-07T04:07:19;16.00;99.90
23715;DHT22;12036;50.858;4.472;2023-09-07T04:09:45;15.90;99.90
23715;DHT22;12036;50.858;4.472;2023-09-07T04:12:11;16.00;99.90
23715;DHT22;12036;50.858;4.472;2023-09-07T04:14:37;15.90;99.90
23715;DHT22;12036;50.858;4.472;2023-09-07T04:17:04;15.90;99.90
23715;DHT22;12036;50.858;4.472;2023-09-07T04:19:29;15.90;99.90
23715;DHT22;12036;50.858;4.472;2023-09-07T04:21:57;15.80;99.90
23715;DHT22;12036;50.858;4.472;2023-09-07T04:24:22;15.80;99.90
23715;DHT22;12036;50.858;4.472;2023-09-07T04:26:48;15.80;99.90
23715;DHT22;12036;50.858;4.472;2023-09-07T04:29:15;15.80;99.90
23715;DHT22;12036;50.858;4.472;2023-09-07T04:31:41;15.80;99.90
23715;DHT22;12036;50.858;4.472;2023-09-07T04:34:07;15.80;99.90
23715;DHT22;12036;50.858;4.472;2023-09-07T04:36:33;15.80;99.90
23715;DHT22;12036;50.858;4.472;2023-09-07T04:38:59;15.70;99.90
23715;DHT22;12036;50.858;4.472;2023-09-07T04:41:24;15.70;99.90
23715;DHT22;12036;50.858;4.472;2023-09-07T04:43:50;15.70;99.90
23715;DHT22;12036;50.858;4.472;2023-09-07T04:46:15;15.70;99.90
23715;DHT22;12036;50.858;4.472;2023-09-07T04:48:42;15.70;99.90
23715;DHT22;12036;50.858;4.472;2023-09-07T04:51:10;15.70;99.90
23715;DHT22;12036;50.858;4.472;2023-09-07T04:53:38;15.60;99.90
23715;DHT22;12036;50.858;4.472;2023-09-07T04:56:05;15.60;99.90
23715;DHT22;12036;50.858;4.472;2023-09-07T04:58:31;15.60;99.90
23715;DHT22;12036;50.858;4.472;2023-09-07T05:01:09;15.60;99.90
23715;DHT22;12036;50.858;4.472;2023-09-07T05:03:35;15.60;99.90
23715;DHT22;12036;50.858;4.472;2023-09-07T05:06:02;15.60;99.90
23715;DHT22;12036;50.858;4.472;2023-09-07T05:08:30;15.60;99.90
23715;DHT22;12036;50.858;4.472;2023-09-07T05:10:57;15.60;99.90
23715;DHT22;12036;50.858;4.472;2023-09-07T05:13:24;15.60;99.90
23715;DHT22;12036;50.858;4.472;2023-09-07T05:15:50;15.60;99.90
23715;DHT22;12036;50.858;4.472;2023-09-07T05:18:17;15.60;99.90
23715;DHT22;12036;50.858;4.472;2023-09-07T05:20:43;15.60;99.90
23715;DHT22;12036;50.858;4.472;2023-09-07T05:23:17;15.60;99.90
23715;DHT22;12036;50.858;4.472;2023-09-07T05:25:52;15.60;99.90
23715;DHT22;12036;50.858;4.472;2023-09-07T05:28:18;15.60;99.90
23715;DHT22;12036;50.858;4.472;2023-09-07T05:30:44;15.60;99.90
23715;DHT22;12036;50.858;4.472;2023-09-07T05:33:11;15.60;99.90
23715;DHT22;12036;50.858;4.472;2023-09-07T05:35:37;15.70;99.90
23715;DHT22;12036;50.858;4.472;2023-09-07T05:38:04;15.70;99.90
23715;DHT22;12036;50.858;4.472;2023-09-07T05:40:34;15.70;99.90
23715;DHT22;12036;50.858;4.472;2023-09-07T05:43:00;15.70;99.90
23715;DHT22;12036;50.858;4.472;2023-09-07T05:45:26;15.80;99.90
23715;DHT22;12036;50.858;4.472;2023-09-07T05:47:51;15.80;99.90
23715;DHT22;12036;50.858;4.472;2023-09-07T05:50:17;15.80;99.90
23715;DHT22;12036;50.858;4.472;2023-09-07T05:52:42;15.90;99.90
23715;DHT22;12036;50.858;4.472;2023-09-07T05:55:08;16.00;99.90
23715;DHT22;12036;50.858;4.472;2023-09-07T05:57:34;16.10;99.90
23715;DHT22;12036;50.858;4.472;2023-09-07T05:59:59;16.20;99.90
23715;DHT22;12036;50.858;4.472;2023-09-07T06:02:25;16.30;99.90
23715;DHT22;12036;50.858;4.472;2023-09-07T06:04:51;16.40;99.90
23715;DHT22;12036;50.858;4.472;2023-09-07T06:07:16;16.50;99.90
23715;DHT22;12036;50.858;4.472;2023-09-07T06:09:42;16.60;99.90
23715;DHT22;12036;50.858;4.472;2023-09-07T06:12:07;16.70;99.90
23715;DHT22;12036;50.858;4.472;2023-09-07T06:14:33;16.80;99.90
23715;DHT22;12036;50.858;4.472;2023-09-07T06:16:59;16.90;99.90
23715;DHT22;12036;50.858;4.472;2023-09-07T06:19:24;17.00;99.90
23715;DHT22;12036;50.858;4.472;2023-09-07T06:21:50;17.10;99.90
23715;DHT22;12036;50.858;4.472;2023-09-07T06:24:15;17.20;99.90
23715;DHT22;12036;50.858;4.472;2023-09-07T06:26:41;17.30;99.90
23715;DHT22;12036;50.858;4.472;2023-09-07T06:29:09;17.40;99.90
23715;DHT22;12036;50.858;4.472;2023-09-07T06:31:35;17.50;99.90
23715;DHT22;12036;50.858;4.472;2023-09-07T06:34:01;17.60;99.90
23715;DHT22;12036;50.858;4.472;2023-09-07T06:36:26;17.80;99.90
23715;DHT22;12036;50.858;4.472;2023-09-07T06:38:52;17.90;99.90
23715;DHT22;12036;50.858;4.472;2023-09-07T06:41:17;18.00;99.90
23715;DHT22;12036;50.858;4.472;2023-09-07T06:43:43;18.10;99.90
23715;DHT22;12036;50.858;4.472;2023-09-07T06:46:09;18.20;99.90
23715;DHT22;12036;50.858;4.472;2023-09-07T06:48:35;18.40;99.90
23715;DHT22;12036;50.858;4.472;2023-09-07T06:51:04;18.50;99.90
23715;DHT22;12036;50.858;4.472;2023-09-07T06:53:31;18.70;99.90
23715;DHT22;12036;50.858;4.472;2023-09-07T06:56:01;19.20;99.90
23715;DHT22;12036;50.858;4.472;2023-09-07T06:58:26;20.70;99.90
23715;DHT22;12036;50.858;4.472;2023-09-07T07:00:56;22.00;99.90
23715;DHT22;12036;50.858;4.472;2023-09-07T07:03:22;23.40;99.90
23715;DHT22;12036;50.858;4.472;2023-09-07T07:05:47;24.80;99.90
23715;DHT22;12036;50.858;4.472;2023-09-07T07:08:13;25.80;99.90
23715;DHT22;12036;50.858;4.472;2023-09-07T07:10:39;26.50;99.90
23715;DHT22;12036;50.858;4.472;2023-09-07T07:13:04;26.50;99.50
23715;DHT22;12036;50.858;4.472;2023-09-07T07:15:30;25.70;99.90
23715;DHT22;12036;50.858;4.472;2023-09-07T07:17:55;24.70;99.90
23715;DHT22;12036;50.858;4.472;2023-09-07T07:20:21;23.90;99.90
23715;DHT22;12036;50.858;4.472;2023-09-07T07:22:47;23.50;99.90
23715;DHT22;12036;50.858;4.472;2023-09-07T07:25:12;23.10;99.90
23715;DHT22;12036;50.858;4.472;2023-09-07T07:27:38;22.90;99.90
23715;DHT22;12036;50.858;4.472;2023-09-07T07:30:04;22.90;99.90
23715;DHT22;12036;50.858;4.472;2023-09-07T07:32:30;23.30;99.90
23715;DHT22;12036;50.858;4.472;2023-09-07T07:34:55;24.50;99.90
23715;DHT22;12036;50.858;4.472;2023-09-07T07:37:22;26.90;99.00
23715;DHT22;12036;50.858;4.472;2023-09-07T07:39:48;28.90;95.50
23715;DHT22;12036;50.858;4.472;2023-09-07T07:42:13;30.30;93.00
23715;DHT22;12036;50.858;4.472;2023-09-07T07:44:39;31.70;90.20
23715;DHT22;12036;50.858;4.472;2023-09-07T07:47:05;32.80;85.00
23715;DHT22;12036;50.858;4.472;2023-09-07T07:49:30;33.30;78.80
23715;DHT22;12036;50.858;4.472;2023-09-07T07:51:56;32.80;77.90
23715;DHT22;12036;50.858;4.472;2023-09-07T07:54:23;31.70;78.80
23715;DHT22;12036;50.858;4.472;2023-09-07T07:56:50;30.40;82.60
23715;DHT22;12036;50.858;4.472;2023-09-07T07:59:16;29.30;86.30
23715;DHT22;12036;50.858;4.472;2023-09-07T08:01:41;28.40;89.10
23715;DHT22;12036;50.858;4.472;2023-09-07T08:04:07;27.80;90.50
23715;DHT22;12036;50.858;4.472;2023-09-07T08:06:33;27.20;90.80
23715;DHT22;12036;50.858;4.472;2023-09-07T08:09:00;26.80;92.10
23715;DHT22;12036;50.858;4.472;2023-09-07T08:11:25;26.70;91.20
23715;DHT22;12036;50.858;4.472;2023-09-07T08:13:52;26.60;90.90
23715;DHT22;12036;50.858;4.472;2023-09-07T08:16:18;26.30;91.20
23715;DHT22;12036;50.858;4.472;2023-09-07T08:18:44;25.80;92.40
23715;DHT22;12036;50.858;4.472;2023-09-07T08:21:10;25.40;93.80
23715;DHT22;12036;50.858;4.472;2023-09-07T08:23:35;25.30;94.30
23715;DHT22;12036;50.858;4.472;2023-09-07T08:26:01;25.00;95.10
23715;DHT22;12036;50.858;4.472;2023-09-07T08:28:28;24.90;96.10
23715;DHT22;12036;50.858;4.472;2023-09-07T08:30:54;24.90;95.40
23715;DHT22;12036;50.858;4.472;2023-09-07T08:33:21;24.90;95.20
23715;DHT22;12036;50.858;4.472;2023-09-07T08:35:55;24.90;95.80
23715;DHT22;12036;50.858;4.472;2023-09-07T08:38:21;24.90;95.90
23715;DHT22;12036;50.858;4.472;2023-09-07T08:41:01;24.70;96.30
23715;DHT22;12036;50.858;4.472;2023-09-07T08:43:29;24.80;96.20
23715;DHT22;12036;50.858;4.472;2023-09-07T08:46:01;24.80;96.70
23715;DHT22;12036;50.858;4.472;2023-09-07T08:48:30;24.80;97.00
23715;DHT22;12036;50.858;4.472;2023-09-07T08:50:56;24.90;97.00
23715;DHT22;12036;50.858;4.472;2023-09-07T08:53:22;24.80;96.90
23715;DHT22;12036;50.858;4.472;2023-09-07T08:55:48;24.90;95.90
23715;DHT22;12036;50.858;4.472;2023-09-07T08:58:14;25.00;95.90
23715;DHT22;12036;50.858;4.472;2023-09-07T09:00:42;25.20;96.40
23715;DHT22;12036;50.858;4.472;2023-09-07T09:03:09;25.30;96.80
23715;DHT22;12036;50.858;4.472;2023-09-07T09:05:38;25.30;95.80
23715;DHT22;12036;50.858;4.472;2023-09-07T09:08:04;25.40;95.70
23715;DHT22;12036;50.858;4.472;2023-09-07T09:10:30;25.50;94.90
23715;DHT22;12036;50.858;4.472;2023-09-07T09:12:56;25.50;95.50
23715;DHT22;12036;50.858;4.472;2023-09-07T09:15:22;25.60;95.40
23715;DHT22;12036;50.858;4.472;2023-09-07T09:17:48;25.80;95.00
23715;DHT22;12036;50.858;4.472;2023-09-07T09:20:24;26.30;94.10
23715;DHT22;12036;50.858;4.472;2023-09-07T09:22:54;26.90;94.50
23715;DHT22;12036;50.858;4.472;2023-09-07T09:25:21;28.30;92.10
23715;DHT22;12036;50.858;4.472;2023-09-07T09:27:47;30.30;87.20
23715;DHT22;12036;50.858;4.472;2023-09-07T09:30:13;32.10;80.80
23715;DHT22;12036;50.858;4.472;2023-09-07T09:32:42;33.60;76.90
23715;DHT22;12036;50.858;4.472;2023-09-07T09:35:08;34.70;73.10
23715;DHT22;12036;50.858;4.472;2023-09-07T09:37:47;35.40;71.20
23715;DHT22;12036;50.858;4.472;2023-09-07T09:40:14;36.20;68.10
23715;DHT22;12036;50.858;4.472;2023-09-07T09:42:42;37.00;64.00
23715;DHT22;12036;50.858;4.472;2023-09-07T09:45:09;37.60;62.10
23715;DHT22;12036;50.858;4.472;2023-09-07T09:47:41;38.00;57.90
23715;DHT22;12036;50.858;4.472;2023-09-07T09:50:09;38.10;57.00
23715;DHT22;12036;50.858;4.472;2023-09-07T09:52:35;38.00;56.10
23715;DHT22;12036;50.858;4.472;2023-09-07T09:55:04;38.00;56.60
23715;DHT22;12036;50.858;4.472;2023-09-07T09:57:32;37.90;56.80
23715;DHT22;12036;50.858;4.472;2023-09-07T09:59:59;38.30;54.50
23715;DHT22;12036;50.858;4.472;2023-09-07T10:02:34;38.40;54.20
23715;DHT22;12036;50.858;4.472;2023-09-07T10:05:02;37.90;53.80
23715;DHT22;12036;50.858;4.472;2023-09-07T10:07:47;38.00;54.10
23715;DHT22;12036;50.858;4.472;2023-09-07T10:10:14;37.80;54.60
23715;DHT22;12036;50.858;4.472;2023-09-07T10:12:44;37.70;54.50
23715;DHT22;12036;50.858;4.472;2023-09-07T10:15:27;37.40;55.50
23715;DHT22;12036;50.858;4.472;2023-09-07T10:18:12;37.60;55.20
23715;DHT22;12036;50.858;4.472;2023-09-07T10:20:56;36.90;55.40
23715;DHT22;12036;50.858;4.472;2023-09-07T10:23:45;36.30;54.60
23715;DHT22;12036;50.858;4.472;2023-09-07T10:26:15;35.40;56.30
23715;DHT22;12036;50.858;4.472;2023-09-07T10:28:42;34.20;59.70
23715;DHT22;12036;50.858;4.472;2023-09-07T10:31:19;33.40;59.10
23715;DHT22;12036;50.858;4.472;2023-09-07T10:33:46;32.90;59.10
23715;DHT22;12036;50.858;4.472;2023-09-07T10:36:26;32.80;59.90
23715;DHT22;12036;50.858;4.472;2023-09-07T10:38:53;32.50;60.30
23715;DHT22;12036;50.858;4.472;2023-09-07T10:41:19;32.10;60.70
23715;DHT22;12036;50.858;4.472;2023-09-07T10:43:50;31.50;62.40
23715;DHT22;12036;50.858;4.472;2023-09-07T10:46:21;31.00;64.20
23715;DHT22;12036;50.858;4.472;2023-09-07T10:48:53;30.80;65.40
23715;DHT22;12036;50.858;4.472;2023-09-07T10:51:21;31.00;65.70
23715;DHT22;12036;50.858;4.472;2023-09-07T10:53:48;31.70;63.70
23715;DHT22;12036;50.858;4.472;2023-09-07T10:56:14;32.20;61.30
23715;DHT22;12036;50.858;4.472;2023-09-07T10:58:40;32.70;62.20
23715;DHT22;12036;50.858;4.472;2023-09-07T11:01:08;32.90;61.60
23715;DHT22;12036;50.858;4.472;2023-09-07T11:03:34;33.30;61.10
23715;DHT22;12036;50.858;4.472;2023-09-07T11:06:17;34.00;59.80
23715;DHT22;12036;50.858;4.472;2023-09-07T11:08:45;34.00;59.10
23715;DHT22;12036;50.858;4.472;2023-09-07T11:11:12;34.10;59.80
23715;DHT22;12036;50.858;4.472;2023-09-07T11:13:38;34.20;59.70
23715;DHT22;12036;50.858;4.472;2023-09-07T11:16:07;34.50;58.80
23715;DHT22;12036;50.858;4.472;2023-09-07T11:18:33;34.90;58.70
23715;DHT22;12036;50.858;4.472;2023-09-07T11:21:02;34.90;58.50
23715;DHT22;12036;50.858;4.472;2023-09-07T11:23:33;34.70;58.70
23715;DHT22;12036;50.858;4.472;2023-09-07T11:26:13;34.60;58.30
23715;DHT22;12036;50.858;4.472;2023-09-07T11:28:39;34.50;58.50
23715;DHT22;12036;50.858;4.472;2023-09-07T11:31:06;34.90;57.60
23715;DHT22;12036;50.858;4.472;2023-09-07T11:33:32;35.20;56.90
23715;DHT22;12036;50.858;4.472;2023-09-07T11:35:58;35.20;57.20
23715;DHT22;12036;50.858;4.472;2023-09-07T11:38:29;35.10;56.20
23715;DHT22;12036;50.858;4.472;2023-09-07T11:40:55;34.50;57.80
23715;DHT22;12036;50.858;4.472;2023-09-07T11:43:21;34.20;56.90
23715;DHT22;12036;50.858;4.472;2023-09-07T11:45:49;34.10;56.90
23715;DHT22;12036;50.858;4.472;2023-09-07T11:48:15;33.70;57.90
23715;DHT22;12036;50.858;4.472;2023-09-07T11:50:40;33.40;57.50
23715;DHT22;12036;50.858;4.472;2023-09-07T11:53:07;32.80;58.50
23715;DHT22;12036;50.858;4.472;2023-09-07T11:55:33;32.40;58.80
23715;DHT22;12036;50.858;4.472;2023-09-07T11:58:04;32.20;59.60
23715;DHT22;12036;50.858;4.472;2023-09-07T12:00:32;31.90;61.00
23715;DHT22;12036;50.858;4.472;2023-09-07T12:02:59;31.70;62.00
23715;DHT22;12036;50.858;4.472;2023-09-07T12:05:24;31.70;60.20
23715;DHT22;12036;50.858;4.472;2023-09-07T12:07:50;31.60;64.00
23715;DHT22;12036;50.858;4.472;2023-09-07T12:10:15;31.60;61.40
23715;DHT22;12036;50.858;4.472;2023-09-07T12:12:42;31.40;62.30
23715;DHT22;12036;50.858;4.472;2023-09-07T12:15:08;31.40;60.60
23715;DHT22;12036;50.858;4.472;2023-09-07T12:17:34;31.30;63.50
23715;DHT22;12036;50.858;4.472;2023-09-07T12:20:00;31.40;63.50
23715;DHT22;12036;50.858;4.472;2023-09-07T12:22:29;31.30;63.20
23715;DHT22;12036;50.858;4.472;2023-09-07T12:24:55;31.30;68.00
23715;DHT22;12036;50.858;4.472;2023-09-07T12:27:21;31.30;63.60
23715;DHT22;12036;50.858;4.472;2023-09-07T12:29:47;31.40;65.10
23715;DHT22;12036;50.858;4.472;2023-09-07T12:32:14;31.40;63.80
23715;DHT22;12036;50.858;4.472;2023-09-07T12:34:39;31.40;66.30
23715;DHT22;12036;50.858;4.472;2023-09-07T12:37:05;31.40;65.70
23715;DHT22;12036;50.858;4.472;2023-09-07T12:39:32;31.30;66.30
23715;DHT22;12036;50.858;4.472;2023-09-07T12:41:58;31.40;64.50
23715;DHT22;12036;50.858;4.472;2023-09-07T12:44:23;31.40;64.10
23715;DHT22;12036;50.858;4.472;2023-09-07T12:46:49;31.40;65.70
23715;DHT22;12036;50.858;4.472;2023-09-07T12:49:15;31.40;64.90
23715;DHT22;12036;50.858;4.472;2023-09-07T12:51:41;31.50;63.20
23715;DHT22;12036;50.858;4.472;2023-09-07T12:54:06;31.40;65.10
23715;DHT22;12036;50.858;4.472;2023-09-07T12:56:33;31.50;66.30
23715;DHT22;12036;50.858;4.472;2023-09-07T12:58:58;31.40;65.70
23715;DHT22;12036;50.858;4.472;2023-09-07T13:01:25;31.40;66.10
23715;DHT22;12036;50.858;4.472;2023-09-07T13:03:51;31.40;66.70
23715;DHT22;12036;50.858;4.472;2023-09-07T13:06:17;31.50;63.00
23715;DHT22;12036;50.858;4.472;2023-09-07T13:08:43;31.50;64.20
23715;DHT22;12036;50.858;4.472;2023-09-07T13:11:10;31.40;63.40
23715;DHT22;12036;50.858;4.472;2023-09-07T13:13:36;31.40;64.00
23715;DHT22;12036;50.858;4.472;2023-09-07T13:16:01;31.40;65.10
23715;DHT22;12036;50.858;4.472;2023-09-07T13:18:27;31.50;64.60
23715;DHT22;12036;50.858;4.472;2023-09-07T13:20:53;31.50;64.90
23715;DHT22;12036;50.858;4.472;2023-09-07T13:23:33;31.50;65.00
23715;DHT22;12036;50.858;4.472;2023-09-07T13:25:59;31.60;63.90
23715;DHT22;12036;50.858;4.472;2023-09-07T13:28:26;31.60;63.00
23715;DHT22;12036;50.858;4.472;2023-09-07T13:30:52;31.60;63.20
23715;DHT22;12036;50.858;4.472;2023-09-07T13:33:17;31.60;62.70
23715;DHT22;12036;50.858;4.472;2023-09-07T13:35:43;31.60;63.50
23715;DHT22;12036;50.858;4.472;2023-09-07T13:38:09;31.60;65.70
23715;DHT22;12036;50.858;4.472;2023-09-07T13:40:35;31.60;65.40
23715;DHT22;12036;50.858;4.472;2023-09-07T13:43:01;31.60;65.30
23715;DHT22;12036;50.858;4.472;2023-09-07T13:45:26;31.70;63.50
23715;DHT22;12036;50.858;4.472;2023-09-07T13:47:54;31.80;64.50
23715;DHT22;12036;50.858;4.472;2023-09-07T13:50:20;31.80;65.40
23715;DHT22;12036;50.858;4.472;2023-09-07T13:52:46;31.80;66.60
23715;DHT22;12036;50.858;4.472;2023-09-07T13:55:11;31.80;67.40
23715;DHT22;12036;50.858;4.472;2023-09-07T13:57:37;31.80;66.40
23715;DHT22;12036;50.858;4.472;2023-09-07T14:00:03;31.80;66.10
23715;DHT22;12036;50.858;4.472;2023-09-07T14:02:31;31.90;65.80
23715;DHT22;12036;50.858;4.472;2023-09-07T14:04:58;31.80;66.00
23715;DHT22;12036;50.858;4.472;2023-09-07T14:07:23;31.70;67.20
23715;DHT22;12036;50.858;4.472;2023-09-07T14:09:52;31.70;66.30
23715;DHT22;12036;50.858;4.472;2023-09-07T14:12:17;31.80;66.10
23715;DHT22;12036;50.858;4.472;2023-09-07T14:14:43;31.80;66.00
23715;DHT22;12036;50.858;4.472;2023-09-07T14:17:09;31.80;66.00
23715;DHT22;12036;50.858;4.472;2023-09-07T14:19:34;31.90;64.40
23715;DHT22;12036;50.858;4.472;2023-09-07T14:22:00;31.80;65.50
23715;DHT22;12036;50.858;4.472;2023-09-07T14:24:25;31.80;65.80
23715;DHT22;12036;50.858;4.472;2023-09-07T14:26:51;31.80;65.40
23715;DHT22;12036;50.858;4.472;2023-09-07T14:29:17;31.80;66.20
23715;DHT22;12036;50.858;4.472;2023-09-07T14:31:43;31.70;66.60
23715;DHT22;12036;50.858;4.472;2023-09-07T14:34:10;31.60;66.10
23715;DHT22;12036;50.858;4.472;2023-09-07T14:36:36;31.60;65.10
23715;DHT22;12036;50.858;4.472;2023-09-07T14:39:02;31.50;65.80
23715;DHT22;12036;50.858;4.472;2023-09-07T14:41:29;31.40;65.80
23715;DHT22;12036;50.858;4.472;2023-09-07T14:43:56;31.40;66.90
23715;DHT22;12036;50.858;4.472;2023-09-07T14:46:21;31.30;66.10
23715;DHT22;12036;50.858;4.472;2023-09-07T14:48:48;31.30;66.70
23715;DHT22;12036;50.858;4.472;2023-09-07T14:51:14;31.30;67.80
23715;DHT22;12036;50.858;4.472;2023-09-07T14:53:40;31.40;66.50
23715;DHT22;12036;50.858;4.472;2023-09-07T14:56:06;31.30;67.50
23715;DHT22;12036;50.858;4.472;2023-09-07T14:58:32;31.20;69.00
23715;DHT22;12036;50.858;4.472;2023-09-07T15:00:57;31.20;68.70
23715;DHT22;12036;50.858;4.472;2023-09-07T15:03:24;31.20;68.10
23715;DHT22;12036;50.858;4.472;2023-09-07T15:05:49;31.20;67.90
23715;DHT22;12036;50.858;4.472;2023-09-07T15:08:15;31.20;68.40
23715;DHT22;12036;50.858;4.472;2023-09-07T15:10:41;31.10;69.50
23715;DHT22;12036;50.858;4.472;2023-09-07T15:13:07;31.10;69.60
23715;DHT22;12036;50.858;4.472;2023-09-07T15:15:34;31.20;68.10
23715;DHT22;12036;50.858;4.472;2023-09-07T15:18:03;31.20;68.80
23715;DHT22;12036;50.858;4.472;2023-09-07T15:20:35;31.30;68.70
23715;DHT22;12036;50.858;4.472;2023-09-07T15:23:01;31.40;67.90
23715;DHT22;12036;50.858;4.472;2023-09-07T15:25:27;31.30;69.50
23715;DHT22;12036;50.858;4.472;2023-09-07T15:27:53;31.10;69.70